Time;durP1;ratioP1;P1;durP2;ratioP2;P2;SDS_P1;SDS_P2;PMS_P1;PMS_P2;Temp;Humidity;BMP_temperature;BMP_pressure;BME280_temperature;BME280_humidity;BME280_pressure;Samples;Min_cycle;Max_cycle;Signal;HPM_P1;HPM_P2
2022/03/16 00:00:08;;;;;;;6.50;3.63;;;15.00;67.30;;;;;;2054288;27;20180;-75
2022/03/16 00:01:06;;;;;;;3.45;2.95;;;15.00;66.80;;;;;;2054592;27;20180;-75
2022/03/16 00:02:05;;;;;;;3.30;3.00;;;15.00;67.30;;;;;;2054467;27;20197;-76
2022/03/16 00:03:03;;;;;;;5.00;3.20;;;14.90;67.50;;;;;;2054452;27;20285;-75
2022/03/16 00:04:02;;;;;;;5.47;3.90;;;15.00;67.30;;;;;;2054516;27;20648;-76
2022/03/16 00:05:01;;;;;;;3.80;3.00;;;15.00;67.70;;;;;;2054403;27;20169;-76
2022/03/16 00:05:59;;;;;;;5.20;3.50;;;15.00;67.50;;;;;;2054289;27;20463;-76
2022/03/16 00:06:58;;;;;;;4.53;3.17;;;15.00;67.40;;;;;;2054571;27;20165;-74
2022/03/16 00:07:56;;;;;;;4.37;3.53;;;15.00;67.30;;;;;;2054499;27;20165;-75
2022/03/16 00:08:55;;;;;;;4.13;3.40;;;14.90;67.60;;;;;;2054586;27;20169;-76
2022/03/16 00:09:53;;;;;;;9.87;3.80;;;15.00;67.60;;;;;;2054697;27;20240;-76
2022/03/16 00:10:52;;;;;;;5.97;3.70;;;15.00;68.10;;;;;;2054482;27;20185;-74
2022/03/16 00:11:50;;;;;;;5.93;4.10;;;15.00;68.20;;;;;;2054194;27;20264;-74
2022/03/16 00:12:52;;;;;;;4.97;2.73;;;14.90;67.20;;;;;;2054271;27;20629;-75
2022/03/16 00:13:50;;;;;;;6.60;3.75;;;14.90;67.00;;;;;;2054279;27;20952;-75
2022/03/16 00:14:49;;;;;;;4.77;3.47;;;15.00;67.20;;;;;;2054269;27;20326;-74
2022/03/16 00:15:48;;;;;;;4.83;3.60;;;14.90;67.00;;;;;;2054193;27;20566;-75
2022/03/16 00:16:46;;;;;;;5.00;3.03;;;14.90;66.60;;;;;;2054420;27;20241;-75
2022/03/16 00:17:45;;;;;;;4.90;3.17;;;14.90;66.40;;;;;;2054161;27;20177;-75
2022/03/16 00:18:44;;;;;;;4.38;2.97;;;14.90;66.60;;;;;;2053976;27;20231;-74
2022/03/16 00:19:44;;;;;;;4.10;2.93;;;14.90;66.80;;;;;;2054366;27;20562;-74
2022/03/16 00:20:42;;;;;;;6.70;3.72;;;15.00;66.80;;;;;;2054215;27;20169;-75
2022/03/16 00:21:41;;;;;;;5.77;3.67;;;14.90;66.90;;;;;;2045205;28;20243;-75
2022/03/16 00:22:41;;;;;;;3.63;2.93;;;14.90;66.90;;;;;;2045527;28;20162;-75
2022/03/16 00:23:40;;;;;;;5.25;3.63;;;15.00;67.30;;;;;;2053745;27;20165;-75
2022/03/16 00:24:39;;;;;;;4.80;3.05;;;14.90;66.10;;;;;;2045306;28;20616;-74
2022/03/16 00:25:39;;;;;;;5.63;3.40;;;15.00;67.00;;;;;;2045346;28;20231;-75
2022/03/16 00:26:37;;;;;;;3.70;3.05;;;15.00;67.00;;;;;;2053734;27;20201;-76
2022/03/16 00:27:37;;;;;;;6.10;3.47;;;14.90;66.90;;;;;;2054349;27;20169;-74
2022/03/16 00:28:36;;;;;;;8.40;2.95;;;14.90;66.60;;;;;;2054413;27;20222;-76
2022/03/16 00:29:35;;;;;;;6.07;2.90;;;15.00;67.00;;;;;;2045338;28;20298;-73
2022/03/16 00:30:36;;;;;;;6.45;3.65;;;15.00;66.30;;;;;;2045640;28;20655;-76
2022/03/16 00:31:34;;;;;;;7.13;3.65;;;14.90;62.50;;;;;;2045627;28;20264;-75
2022/03/16 00:32:34;;;;;;;4.57;3.17;;;15.00;60.10;;;;;;2047876;28;20166;-75
2022/03/16 00:33:33;;;;;;;3.80;3.25;;;15.00;59.90;;;;;;2054081;27;20241;-75
2022/03/16 00:34:31;;;;;;;5.10;3.50;;;15.00;60.00;;;;;;2045319;28;20600;-74
2022/03/16 00:35:31;;;;;;;3.90;3.13;;;15.00;60.20;;;;;;2045472;28;20219;-74
2022/03/16 00:36:31;;;;;;;5.88;3.00;;;15.00;61.60;;;;;;2054366;27;20165;-74
2022/03/16 00:37:32;;;;;;;6.55;3.90;;;14.90;61.70;;;;;;2045313;28;20200;-75
2022/03/16 00:38:31;;;;;;;6.35;3.42;;;15.00;62.20;;;;;;2045576;28;20174;-76
2022/03/16 00:39:29;;;;;;;6.17;3.93;;;15.00;65.90;;;;;;2054310;27;20200;-74
2022/03/16 00:40:28;;;;;;;2.97;2.50;;;15.00;66.80;;;;;;2054201;27;20173;-74
2022/03/16 00:41:27;;;;;;;5.50;3.50;;;14.90;66.90;;;;;;2054128;27;20173;-76
2022/03/16 00:42:30;;;;;;;4.90;3.20;;;15.00;67.20;;;;;;2054203;27;20227;-75
2022/03/16 00:43:29;;;;;;;3.22;2.80;;;15.00;67.00;;;;;;2045185;28;20169;-74
2022/03/16 00:44:28;;;;;;;4.70;3.23;;;15.00;67.10;;;;;;2045262;28;20653;-74
2022/03/16 00:45:27;;;;;;;3.83;3.00;;;15.00;67.10;;;;;;2052704;27;20169;-75
2022/03/16 00:46:25;;;;;;;4.00;2.93;;;15.00;67.10;;;;;;2053781;27;20215;-75
2022/03/16 00:47:24;;;;;;;2.97;2.33;;;15.00;67.30;;;;;;2054172;27;20173;-75
2022/03/16 00:48:22;;;;;;;4.40;3.50;;;15.00;67.00;;;;;;2054177;27;20602;-75
2022/03/16 00:49:21;;;;;;;4.77;3.60;;;15.00;66.90;;;;;;2053998;27;20505;-75
2022/03/16 00:50:21;;;;;;;3.87;2.90;;;14.90;66.90;;;;;;2054162;27;20177;-76
2022/03/16 00:51:20;;;;;;;4.80;3.22;;;14.90;66.10;;;;;;2054171;27;20181;-75
2022/03/16 00:52:18;;;;;;;5.18;3.30;;;14.90;66.40;;;;;;2053996;27;20254;-75
2022/03/16 00:53:17;;;;;;;4.03;3.50;;;15.00;66.90;;;;;;2054019;27;20168;-76
2022/03/16 00:54:17;;;;;;;5.37;3.00;;;14.90;66.60;;;;;;2054055;27;20165;-76
2022/03/16 00:55:15;;;;;;;3.63;2.80;;;14.90;66.70;;;;;;2045190;28;20200;-74
2022/03/16 00:56:15;;;;;;;3.80;3.10;;;15.10;67.00;;;;;;2045384;28;20185;-74
2022/03/16 00:57:14;;;;;;;4.88;3.42;;;15.00;66.60;;;;;;2045245;28;20252;-74
2022/03/16 00:58:12;;;;;;;4.07;3.13;;;15.00;66.60;;;;;;2053638;27;20177;-74
2022/03/16 00:59:11;;;;;;;6.50;3.80;;;15.00;66.80;;;;;;2054076;27;20644;-74
2022/03/16 01:00:10;;;;;;;5.07;3.40;;;14.90;66.30;;;;;;2053997;27;20648;-75
2022/03/16 01:01:09;;;;;;;5.00;3.63;;;14.90;66.40;;;;;;2045314;28;20220;-75
2022/03/16 01:02:08;;;;;;;3.67;2.90;;;15.00;66.80;;;;;;2036924;28;20194;-76
2022/03/16 01:03:06;;;;;;;5.83;3.23;;;14.90;66.60;;;;;;2044549;28;20256;-74
2022/03/16 01:04:05;;;;;;;4.80;3.73;;;15.00;66.90;;;;;;2053316;27;20645;-74
2022/03/16 01:05:04;;;;;;;4.53;3.17;;;14.90;66.90;;;;;;2053775;27;20621;-75
2022/03/16 01:06:03;;;;;;;5.05;3.40;;;14.90;66.60;;;;;;2053918;27;20165;-74
2022/03/16 01:07:02;;;;;;;4.57;3.07;;;14.90;66.60;;;;;;2053873;27;20173;-76
2022/03/16 01:08:00;;;;;;;7.23;3.60;;;14.90;66.60;;;;;;2053872;27;20246;-74
2022/03/16 01:08:59;;;;;;;6.00;3.43;;;15.00;66.70;;;;;;2054000;27;20172;-74
2022/03/16 01:09:57;;;;;;;3.47;2.77;;;14.90;66.60;;;;;;2045136;28;20174;-74
2022/03/16 01:10:56;;;;;;;5.13;3.67;;;15.00;67.70;;;;;;2037092;28;20163;-75
2022/03/16 01:11:54;;;;;;;3.90;2.93;;;14.90;66.70;;;;;;2045125;28;20391;-75
2022/03/16 01:12:55;;;;;;;5.20;3.13;;;15.00;66.70;;;;;;2044938;28;20271;-75
2022/03/16 01:13:53;;;;;;;3.40;2.70;;;14.90;66.50;;;;;;2037985;28;20167;-75
2022/03/16 01:14:52;;;;;;;4.30;3.00;;;15.00;66.50;;;;;;2037688;28;20209;-74
2022/03/16 01:15:51;;;;;;;5.20;3.50;;;14.90;66.60;;;;;;2061688;27;20244;-74
2022/03/16 01:16:49;;;;;;;5.27;3.30;;;14.90;66.50;;;;;;2063151;27;20177;-74
2022/03/16 01:17:47;;;;;;;4.20;3.80;;;14.90;66.40;;;;;;2063535;27;20204;-75
2022/03/16 01:18:46;;;;;;;4.13;3.10;;;14.90;66.30;;;;;;2063454;27;20268;-74
2022/03/16 01:19:45;;;;;;;4.60;3.10;;;15.00;66.60;;;;;;2056090;27;20252;-75
2022/03/16 01:20:43;;;;;;;4.57;3.10;;;14.90;66.40;;;;;;2054253;27;20173;-75
2022/03/16 01:21:43;;;;;;;5.03;3.40;;;14.90;66.60;;;;;;2054322;27;20169;-75
2022/03/16 01:22:42;;;;;;;4.25;3.25;;;14.90;66.60;;;;;;2054467;27;20161;-75
2022/03/16 01:23:40;;;;;;;3.50;2.73;;;14.90;66.60;;;;;;2044963;28;20669;-75
2022/03/16 01:24:39;;;;;;;4.77;3.03;;;14.90;66.60;;;;;;2045081;28;20566;-75
2022/03/16 01:25:37;;;;;;;3.30;2.70;;;14.90;66.90;;;;;;2044349;28;20185;-75
2022/03/16 01:26:36;;;;;;;5.20;3.33;;;15.00;66.80;;;;;;2045260;28;20609;-75
2022/03/16 01:27:35;;;;;;;4.80;3.27;;;14.90;66.50;;;;;;2053386;27;20809;-75
2022/03/16 01:28:34;;;;;;;4.00;2.97;;;15.00;66.80;;;;;;2053819;27;20574;-74
2022/03/16 01:29:32;;;;;;;4.05;3.10;;;14.90;66.50;;;;;;2053918;27;20186;-74
2022/03/16 01:30:31;;;;;;;5.20;2.97;;;14.90;66.30;;;;;;2053881;27;20710;-74
2022/03/16 01:31:31;;;;;;;4.03;3.10;;;15.00;66.50;;;;;;2053670;27;20172;-74
2022/03/16 01:32:29;;;;;;;4.40;3.00;;;14.90;66.60;;;;;;2053735;27;20180;-76
2022/03/16 01:33:29;;;;;;;4.33;3.23;;;15.00;66.40;;;;;;2053723;27;20226;-76
2022/03/16 01:34:27;;;;;;;6.25;3.38;;;14.90;66.30;;;;;;2053920;27;20185;-74
2022/03/16 01:35:28;;;;;;;4.10;2.73;;;14.90;66.20;;;;;;2053784;27;20169;-74
2022/03/16 01:36:26;;;;;;;4.55;3.10;;;14.90;66.50;;;;;;2053887;27;20637;-76
2022/03/16 01:37:25;;;;;;;3.80;3.00;;;14.90;66.30;;;;;;2044997;28;20224;-75
2022/03/16 01:38:24;;;;;;;4.10;2.77;;;15.30;67.00;;;;;;2045052;28;20530;-74
2022/03/16 01:39:23;;;;;;;5.10;2.85;;;15.00;66.50;;;;;;2053271;27;20208;-75
2022/03/16 01:40:21;;;;;;;4.60;2.60;;;14.90;66.30;;;;;;2053667;27;20222;-76
2022/03/16 01:41:20;;;;;;;4.83;3.10;;;14.90;66.30;;;;;;2053788;27;20173;-74
2022/03/16 01:42:20;;;;;;;5.07;2.70;;;14.90;66.00;;;;;;2053619;27;20645;-75
2022/03/16 01:43:21;;;;;;;5.25;3.58;;;14.90;66.00;;;;;;2053755;27;20168;-75
2022/03/16 01:44:46;;;;;;;5.38;3.35;;;14.90;66.20;;;;;;2053692;27;20192;-75
2022/03/16 01:45:47;;;;;;;7.30;3.85;;;14.90;65.10;;;;;;2044847;28;20158;-75
2022/03/16 01:46:45;;;;;;;3.70;3.00;;;14.90;64.00;;;;;;2044791;28;20208;-75
2022/03/16 01:47:44;;;;;;;3.87;2.90;;;15.00;64.10;;;;;;2053263;27;20165;-75
2022/03/16 01:48:42;;;;;;;4.30;3.00;;;15.00;64.70;;;;;;2053587;27;20172;-75
2022/03/16 01:49:41;;;;;;;5.00;3.13;;;14.90;64.80;;;;;;2053867;27;20246;-75
2022/03/16 01:50:41;;;;;;;3.40;2.83;;;14.90;65.30;;;;;;2044837;28;20170;-75
2022/03/16 01:51:40;;;;;;;4.90;2.85;;;15.00;66.20;;;;;;2044665;28;20167;-74
2022/03/16 01:52:39;;;;;;;4.63;3.83;;;15.00;67.00;;;;;;2053359;27;20600;-75
2022/03/16 01:53:40;;;;;;;3.60;3.15;;;14.90;66.20;;;;;;2053182;27;20256;-74
2022/03/16 01:54:40;;;;;;;4.13;3.10;;;14.90;66.20;;;;;;2053513;27;20260;-75
2022/03/16 01:55:40;;;;;;;3.97;3.10;;;15.00;66.10;;;;;;2044511;28;20226;-75
2022/03/16 01:56:39;;;;;;;5.97;3.35;;;15.00;66.10;;;;;;2044530;28;20645;-75
2022/03/16 01:57:41;;;;;;;4.55;2.38;;;14.90;65.80;;;;;;2053291;27;20184;-74
2022/03/16 01:58:40;;;;;;;3.35;2.88;;;15.00;65.90;;;;;;2053519;27;20249;-76
2022/03/16 01:59:40;;;;;;;6.23;3.30;;;14.90;66.00;;;;;;2044718;28;20562;-74
2022/03/16 02:00:40;;;;;;;3.92;2.92;;;15.00;66.10;;;;;;2044733;28;20184;-76
2022/03/16 02:01:39;;;;;;;3.42;2.95;;;15.00;66.00;;;;;;2053389;27;20181;-74
2022/03/16 02:02:38;;;;;;;5.20;3.20;;;14.90;66.00;;;;;;2053417;27;20207;-75
2022/03/16 02:03:37;;;;;;;5.13;3.13;;;14.90;65.90;;;;;;2053378;27;20196;-76
2022/03/16 02:04:36;;;;;;;4.70;2.97;;;15.00;66.10;;;;;;2053322;27;20173;-75
2022/03/16 02:05:35;;;;;;;4.40;3.30;;;14.90;66.00;;;;;;2053520;27;20177;-75
2022/03/16 02:06:34;;;;;;;3.70;3.25;;;15.00;65.90;;;;;;2053276;27;20442;-75
2022/03/16 02:07:33;;;;;;;5.43;3.20;;;15.00;65.90;;;;;;2053401;27;20648;-75
2022/03/16 02:08:32;;;;;;;5.97;3.23;;;15.00;65.90;;;;;;2053445;27;20169;-74
2022/03/16 02:09:32;;;;;;;4.90;2.85;;;14.90;65.80;;;;;;2044668;28;20315;-74
2022/03/16 02:10:32;;;;;;;5.45;3.45;;;14.90;65.70;;;;;;2044621;28;20247;-75
2022/03/16 02:11:30;;;;;;;4.18;2.75;;;14.90;65.80;;;;;;2052552;27;20691;-75
2022/03/16 02:12:29;;;;;;;4.27;2.97;;;14.90;66.00;;;;;;2053557;27;20173;-74
2022/03/16 02:13:27;;;;;;;7.53;3.80;;;14.90;66.10;;;;;;2053383;27;20214;-74
2022/03/16 02:14:29;;;;;;;4.88;3.10;;;14.90;66.10;;;;;;2053286;27;20171;-74
2022/03/16 02:15:27;;;;;;;4.03;3.22;;;14.90;66.00;;;;;;2053558;27;20161;-75
2022/03/16 02:16:27;;;;;;;5.33;2.80;;;14.90;66.00;;;;;;2044650;28;20260;-75
2022/03/16 02:17:26;;;;;;;4.97;3.53;;;15.00;66.20;;;;;;2044613;28;20177;-75
2022/03/16 02:18:24;;;;;;;5.20;3.27;;;14.90;66.00;;;;;;2052637;27;20240;-75
2022/03/16 02:19:23;;;;;;;5.50;3.63;;;14.90;66.10;;;;;;2044476;28;20169;-74
2022/03/16 02:20:24;;;;;;;5.88;3.65;;;15.00;65.90;;;;;;2044769;28;20233;-74
2022/03/16 02:21:23;;;;;;;3.75;2.90;;;15.00;65.80;;;;;;2053108;27;20181;-74
2022/03/16 02:22:21;;;;;;;3.97;2.93;;;14.90;65.60;;;;;;2053185;27;20288;-75
2022/03/16 02:23:20;;;;;;;4.60;2.97;;;15.00;65.90;;;;;;2053439;27;20176;-74
2022/03/16 02:24:18;;;;;;;3.13;2.10;;;14.90;65.80;;;;;;2044682;28;20258;-75
2022/03/16 02:25:18;;;;;;;3.77;2.67;;;14.90;65.80;;;;;;2044665;28;20208;-75
2022/03/16 02:26:17;;;;;;;3.70;3.10;;;14.90;65.90;;;;;;2052912;27;20197;-75
2022/03/16 02:27:15;;;;;;;5.33;2.53;;;14.90;66.00;;;;;;2053417;27;20621;-75
2022/03/16 02:28:19;;;;;;;4.40;3.17;;;14.90;65.80;;;;;;2053225;27;20189;-75
2022/03/16 02:29:18;;;;;;;6.28;3.13;;;14.90;65.80;;;;;;2053468;27;20149;-74
2022/03/16 02:30:17;;;;;;;4.93;3.13;;;14.90;66.00;;;;;;2053315;27;20256;-75
2022/03/16 02:31:17;;;;;;;5.63;3.40;;;14.90;66.00;;;;;;2053273;27;20180;-74
2022/03/16 02:32:15;;;;;;;4.72;3.20;;;15.00;66.00;;;;;;2044244;28;20197;-75
2022/03/16 02:33:14;;;;;;;4.33;3.57;;;14.90;66.00;;;;;;2044453;28;20641;-74
2022/03/16 02:34:12;;;;;;;4.33;3.00;;;14.90;66.00;;;;;;2052321;27;20173;-75
2022/03/16 02:35:12;;;;;;;3.37;2.77;;;14.90;65.90;;;;;;2044530;28;20554;-75
2022/03/16 02:36:11;;;;;;;3.85;3.10;;;14.90;66.10;;;;;;2044498;28;20173;-74
2022/03/16 02:37:09;;;;;;;4.33;2.97;;;14.90;66.10;;;;;;2044493;28;20166;-73
2022/03/16 02:38:08;;;;;;;3.80;3.10;;;14.90;66.10;;;;;;2053131;27;20165;-75
2022/03/16 02:39:07;;;;;;;4.60;3.45;;;14.90;66.10;;;;;;2053352;27;20233;-75
2022/03/16 02:40:08;;;;;;;4.40;2.80;;;15.00;66.00;;;;;;2053082;27;20176;-75
2022/03/16 02:41:06;;;;;;;5.85;3.65;;;14.90;65.70;;;;;;2053377;27;20169;-74
2022/03/16 02:42:05;;;;;;;3.50;2.53;;;14.90;66.10;;;;;;2053247;27;20701;-73
2022/03/16 02:43:04;;;;;;;4.40;3.00;;;14.90;61.00;;;;;;2053537;27;20248;-75
2022/03/16 02:44:06;;;;;;;3.87;3.47;;;14.90;59.70;;;;;;2053324;27;20403;-74
2022/03/16 02:45:07;;;;;;;5.38;3.53;;;15.00;59.70;;;;;;2053170;27;20165;-75
2022/03/16 02:46:07;;;;;;;4.15;3.38;;;15.00;59.90;;;;;;2053179;27;20205;-74
2022/03/16 02:47:06;;;;;;;5.00;3.45;;;15.00;59.80;;;;;;2044320;28;20300;-75
2022/03/16 02:48:05;;;;;;;4.70;3.33;;;14.90;60.00;;;;;;2044610;28;20185;-75
2022/03/16 02:49:04;;;;;;;3.70;3.15;;;14.90;60.70;;;;;;2052751;27;20164;-74
2022/03/16 02:50:03;;;;;;;4.90;3.47;;;14.90;63.90;;;;;;2053133;27;20169;-74
2022/03/16 02:51:01;;;;;;;4.80;3.27;;;14.90;65.40;;;;;;2053188;27;20172;-75
2022/03/16 02:52:06;;;;;;;4.07;3.30;;;14.90;65.80;;;;;;2053171;27;20945;-75
2022/03/16 02:53:05;;;;;;;5.53;3.25;;;15.00;65.80;;;;;;2053073;27;20717;-74
2022/03/16 02:54:03;;;;;;;5.70;3.35;;;14.90;65.80;;;;;;2053046;27;20168;-75
2022/03/16 02:55:04;;;;;;;4.27;2.70;;;14.90;65.80;;;;;;2053256;27;20219;-74
2022/03/16 02:56:03;;;;;;;5.10;3.60;;;14.90;65.70;;;;;;2053270;27;20504;-75
2022/03/16 02:57:01;;;;;;;3.92;3.30;;;14.90;65.70;;;;;;2053317;27;20583;-75
2022/03/16 02:58:01;;;;;;;10.17;3.80;;;14.90;65.60;;;;;;2053368;27;20169;-75
2022/03/16 02:59:01;;;;;;;9.80;3.40;;;15.00;65.70;;;;;;2053060;27;20165;-74
2022/03/16 02:59:59;;;;;;;3.40;3.10;;;14.90;65.40;;;;;;2053158;27;20215;-75
2022/03/16 03:00:58;;;;;;;6.30;3.97;;;15.00;65.80;;;;;;2053086;27;20620;-75
2022/03/16 03:01:56;;;;;;;5.20;3.30;;;14.90;65.60;;;;;;2053218;27;20245;-76
2022/03/16 03:02:57;;;;;;;5.00;3.40;;;14.90;65.70;;;;;;2044769;28;20178;-75
2022/03/16 03:03:56;;;;;;;4.18;3.38;;;14.90;65.50;;;;;;2044513;28;20188;-75
2022/03/16 03:04:55;;;;;;;4.73;2.97;;;14.90;65.70;;;;;;2044447;28;20173;-76
2022/03/16 03:05:53;;;;;;;5.47;3.10;;;14.90;65.60;;;;;;2044868;28;20169;-75
2022/03/16 03:06:52;;;;;;;4.13;3.00;;;14.90;66.00;;;;;;2053214;27;20200;-75
2022/03/16 03:07:50;;;;;;;4.90;3.70;;;14.90;66.50;;;;;;2053943;27;20168;-75
2022/03/16 03:08:49;;;;;;;4.23;3.47;;;14.90;65.70;;;;;;2053048;27;20232;-74
2022/03/16 03:09:47;;;;;;;4.47;2.90;;;14.90;65.90;;;;;;2053622;27;20176;-76
2022/03/16 03:10:48;;;;;;;4.40;3.07;;;14.90;65.90;;;;;;2053619;27;20173;-76
2022/03/16 03:11:46;;;;;;;5.38;3.33;;;14.90;65.60;;;;;;2036248;28;20253;-75
2022/03/16 03:12:47;;;;;;;6.37;2.83;;;14.90;65.90;;;;;;2036567;28;20179;-74
2022/03/16 03:13:46;;;;;;;4.57;3.38;;;14.80;65.80;;;;;;2052672;27;20213;-74
2022/03/16 03:14:46;;;;;;;5.55;3.20;;;14.90;65.90;;;;;;2053451;27;20226;-75
2022/03/16 03:15:45;;;;;;;7.00;3.13;;;14.90;65.80;;;;;;2054230;27;20629;-75
2022/03/16 03:16:46;;;;;;;5.77;3.37;;;14.80;65.80;;;;;;2054059;27;20227;-74
2022/03/16 03:17:45;;;;;;;6.05;3.55;;;14.90;65.60;;;;;;2054641;27;20609;-74
2022/03/16 03:18:44;;;;;;;3.87;3.30;;;14.80;65.80;;;;;;2053784;27;20228;-74
2022/03/16 03:19:43;;;;;;;4.23;3.37;;;14.80;65.80;;;;;;2053209;27;20161;-74
2022/03/16 03:20:41;;;;;;;5.57;4.18;;;14.90;65.70;;;;;;2053254;27;20161;-74
2022/03/16 03:21:40;;;;;;;5.37;3.40;;;14.90;65.80;;;;;;2053323;27;20169;-75
2022/03/16 03:22:40;;;;;;;5.73;3.23;;;14.90;65.80;;;;;;2053474;27;20161;-74
2022/03/16 03:23:39;;;;;;;5.90;3.63;;;14.90;65.70;;;;;;2053151;28;20161;-74
2022/03/16 03:24:39;;;;;;;3.73;3.27;;;14.90;65.80;;;;;;2053123;27;20172;-75
2022/03/16 03:25:39;;;;;;;4.65;3.30;;;14.90;65.80;;;;;;2053078;28;20192;-74
2022/03/16 03:26:37;;;;;;;5.25;3.40;;;14.90;65.90;;;;;;2053058;28;20197;-74
2022/03/16 03:27:36;;;;;;;5.67;3.73;;;14.80;65.80;;;;;;2053542;28;20196;-75
2022/03/16 03:28:34;;;;;;;5.17;3.10;;;14.90;65.80;;;;;;2053427;28;20192;-74
2022/03/16 03:29:33;;;;;;;4.73;2.67;;;14.90;65.80;;;;;;2053678;28;20217;-73
2022/03/16 03:30:32;;;;;;;5.37;3.53;;;14.80;65.60;;;;;;2053448;28;20168;-75
2022/03/16 03:31:31;;;;;;;4.80;3.23;;;14.80;65.80;;;;;;2053548;28;20260;-75
2022/03/16 03:32:29;;;;;;;5.85;3.28;;;14.90;65.80;;;;;;2045230;28;20403;-75
2022/03/16 03:33:29;;;;;;;4.20;2.77;;;14.80;65.80;;;;;;2045140;28;20173;-74
2022/03/16 03:34:27;;;;;;;4.80;2.80;;;14.80;65.60;;;;;;2045290;28;20234;-75
2022/03/16 03:35:26;;;;;;;5.80;3.27;;;14.80;65.90;;;;;;2045737;28;20213;-76
2022/03/16 03:36:25;;;;;;;6.00;3.10;;;14.80;65.90;;;;;;2044799;28;20186;-74
2022/03/16 03:37:30;;;;;;;5.20;3.60;;;14.90;66.00;;;;;;2045469;28;20173;-75
2022/03/16 03:38:29;;;;;;;4.70;2.88;;;14.90;65.90;;;;;;2037911;28;20155;-75
2022/03/16 03:39:29;;;;;;;4.90;3.40;;;14.90;66.10;;;;;;2045718;28;20213;-74
2022/03/16 03:40:29;;;;;;;7.03;3.40;;;14.80;65.60;;;;;;2054501;28;20199;-74
2022/03/16 03:41:28;;;;;;;6.35;3.55;;;14.90;65.60;;;;;;2054625;28;20177;-74
2022/03/16 03:42:26;;;;;;;3.20;2.47;;;14.80;65.70;;;;;;2054558;28;20247;-75
2022/03/16 03:43:27;;;;;;;4.17;2.87;;;14.90;65.80;;;;;;2054951;28;20668;-74
2022/03/16 03:44:26;;;;;;;4.90;3.60;;;14.90;65.60;;;;;;2046281;28;20181;-75
2022/03/16 03:45:24;;;;;;;6.53;3.90;;;14.90;65.90;;;;;;2047070;28;20174;-74
2022/03/16 03:46:23;;;;;;;4.30;2.80;;;14.90;65.90;;;;;;2046741;28;20266;-74
2022/03/16 03:47:21;;;;;;;6.00;3.57;;;14.80;65.80;;;;;;2047350;28;20184;-74
2022/03/16 03:48:20;;;;;;;5.00;3.37;;;14.80;65.80;;;;;;2048116;28;20172;-74
2022/03/16 03:49:18;;;;;;;4.00;3.37;;;14.80;65.80;;;;;;2055952;28;20217;-75
2022/03/16 03:50:17;;;;;;;4.70;3.40;;;14.80;65.70;;;;;;2056065;28;20195;-75
2022/03/16 03:51:16;;;;;;;4.67;3.20;;;14.80;65.80;;;;;;2055145;28;20169;-74
2022/03/16 03:52:14;;;;;;;5.50;3.40;;;14.80;65.60;;;;;;2057713;28;20200;-74
2022/03/16 03:53:15;;;;;;;4.63;3.13;;;14.80;65.60;;;;;;2058215;28;20169;-75
2022/03/16 03:54:14;;;;;;;2.92;2.63;;;14.90;65.60;;;;;;2058632;28;20162;-75
2022/03/16 03:55:12;;;;;;;4.70;3.17;;;14.80;65.70;;;;;;2051716;28;20189;-74
2022/03/16 03:56:12;;;;;;;5.03;3.07;;;14.90;65.90;;;;;;2052609;28;20158;-74
2022/03/16 03:57:10;;;;;;;3.72;2.83;;;14.80;65.60;;;;;;2060764;28;20200;-74
2022/03/16 03:58:09;;;;;;;3.87;3.00;;;14.80;65.70;;;;;;2060984;28;20241;-74
2022/03/16 03:59:07;;;;;;;5.13;3.40;;;14.80;65.70;;;;;;2060347;28;20193;-75
2022/03/16 04:00:06;;;;;;;4.47;3.00;;;14.80;65.60;;;;;;2059054;28;20197;-75
2022/03/16 04:01:06;;;;;;;5.80;3.22;;;14.80;65.70;;;;;;2059798;28;20217;-75
2022/03/16 04:02:04;;;;;;;7.90;3.55;;;14.90;65.80;;;;;;2060799;28;20184;-73
2022/03/16 04:03:03;;;;;;;6.00;3.23;;;14.80;65.80;;;;;;2061404;28;20192;-74
2022/03/16 04:04:01;;;;;;;4.03;3.10;;;14.80;65.80;;;;;;2061767;28;20181;-74
2022/03/16 04:05:05;;;;;;;4.53;3.30;;;14.80;65.90;;;;;;2062077;28;20176;-73
2022/03/16 04:06:03;;;;;;;5.78;3.25;;;14.80;65.60;;;;;;2062041;28;20176;-74
2022/03/16 04:07:02;;;;;;;5.50;3.77;;;14.80;65.80;;;;;;2060967;28;20169;-74
2022/03/16 04:08:00;;;;;;;4.07;3.03;;;14.70;65.70;;;;;;2062320;28;20165;-74
2022/03/16 04:08:59;;;;;;;3.67;3.10;;;14.80;65.80;;;;;;2053327;28;20196;-73
2022/03/16 04:09:57;;;;;;;6.03;2.70;;;14.80;65.80;;;;;;2053324;28;20196;-75
2022/03/16 04:10:56;;;;;;;5.50;3.40;;;14.80;65.80;;;;;;2053498;28;20241;-74
2022/03/16 04:11:54;;;;;;;3.80;2.80;;;14.80;65.70;;;;;;2053762;28;20200;-74
2022/03/16 04:12:53;;;;;;;6.00;3.20;;;14.80;65.70;;;;;;2053194;28;20207;-74
2022/03/16 04:13:53;;;;;;;4.77;2.90;;;14.80;65.60;;;;;;2052555;28;20158;-75
2022/03/16 04:14:51;;;;;;;5.18;3.10;;;14.80;65.60;;;;;;2060489;28;20157;-74
2022/03/16 04:15:50;;;;;;;4.90;2.90;;;14.80;65.70;;;;;;2061059;28;20174;-74
2022/03/16 04:16:48;;;;;;;5.40;2.90;;;14.80;65.70;;;;;;2060858;28;20192;-74
2022/03/16 04:17:47;;;;;;;4.60;3.80;;;14.70;65.80;;;;;;2053622;28;20206;-75
2022/03/16 04:18:45;;;;;;;6.70;3.80;;;14.70;66.00;;;;;;2045446;28;20229;-75
2022/03/16 04:19:44;;;;;;;3.53;3.00;;;14.80;65.40;;;;;;2053219;28;20161;-74
2022/03/16 04:20:43;;;;;;;3.17;2.87;;;14.80;62.70;;;;;;2063283;27;20161;-74
2022/03/16 04:21:41;;;;;;;5.00;3.10;;;14.70;62.80;;;;;;2063518;27;20184;-74
2022/03/16 04:22:40;;;;;;;3.80;3.10;;;14.80;65.60;;;;;;2054847;28;20173;-75
2022/03/16 04:23:38;;;;;;;5.27;3.80;;;14.70;65.70;;;;;;2055389;28;20164;-74
2022/03/16 04:24:37;;;;;;;3.63;2.63;;;14.80;65.80;;;;;;2063507;27;20161;-74
2022/03/16 04:25:35;;;;;;;4.33;3.50;;;14.80;65.90;;;;;;2063447;27;20162;-74
2022/03/16 04:26:34;;;;;;;3.10;2.40;;;14.80;65.80;;;;;;2063884;27;20197;-74
2022/03/16 04:27:33;;;;;;;4.77;3.27;;;14.80;65.70;;;;;;2063728;27;20149;-75
2022/03/16 04:28:32;;;;;;;4.63;2.67;;;15.00;65.90;;;;;;2063602;27;20394;-75
2022/03/16 04:29:30;;;;;;;3.97;3.03;;;14.80;65.80;;;;;;2062690;27;20165;-75
2022/03/16 04:30:29;;;;;;;3.53;3.10;;;14.80;66.00;;;;;;2062571;27;20173;-74
2022/03/16 04:31:27;;;;;;;6.03;3.80;;;14.80;65.80;;;;;;2062746;27;20176;-75
2022/03/16 04:32:26;;;;;;;5.60;3.37;;;14.80;65.90;;;;;;2062949;27;20321;-74
2022/03/16 04:33:24;;;;;;;4.70;2.63;;;14.80;66.00;;;;;;2063645;27;20183;-74
2022/03/16 04:34:23;;;;;;;5.57;3.50;;;14.70;66.00;;;;;;2062793;27;20610;-74
2022/03/16 04:35:21;;;;;;;4.13;3.07;;;14.70;65.80;;;;;;2062401;27;20232;-74
2022/03/16 04:36:20;;;;;;;6.10;3.67;;;14.80;65.90;;;;;;2062637;27;20173;-74
2022/03/16 04:37:18;;;;;;;3.70;2.70;;;14.80;66.10;;;;;;2062448;27;20180;-74
2022/03/16 04:38:17;;;;;;;5.50;3.20;;;14.80;65.80;;;;;;2062786;27;20181;-74
2022/03/16 04:39:16;;;;;;;4.30;3.23;;;14.70;65.60;;;;;;2062451;27;20169;-74
2022/03/16 04:40:15;;;;;;;5.20;3.00;;;14.80;65.70;;;;;;2062704;27;20409;-74
2022/03/16 04:41:14;;;;;;;5.17;2.97;;;14.80;65.60;;;;;;2062552;27;20219;-74
2022/03/16 04:42:12;;;;;;;4.30;3.10;;;14.80;65.70;;;;;;2062461;27;20286;-76
2022/03/16 04:43:13;;;;;;;5.50;3.50;;;14.80;65.70;;;;;;2062081;27;20200;-74
2022/03/16 04:44:11;;;;;;;4.40;3.25;;;14.70;65.40;;;;;;2054118;28;20180;-74
2022/03/16 04:45:10;;;;;;;4.30;2.80;;;14.80;65.60;;;;;;2054943;28;20169;-73
2022/03/16 04:46:08;;;;;;;6.13;3.23;;;14.80;65.60;;;;;;2055229;28;20182;-73
2022/03/16 04:47:07;;;;;;;7.33;4.07;;;14.70;65.60;;;;;;2055258;28;20196;-75
2022/03/16 04:48:11;;;;;;;4.13;2.80;;;14.70;65.50;;;;;;2054893;28;20311;-74
2022/03/16 04:49:09;;;;;;;3.40;3.10;;;14.70;65.50;;;;;;2055303;27;20155;-74
2022/03/16 04:50:08;;;;;;;5.03;3.10;;;14.70;65.40;;;;;;2063521;27;20160;-74
2022/03/16 04:51:07;;;;;;;5.07;3.77;;;14.70;65.50;;;;;;2055067;28;20169;-75
2022/03/16 04:52:06;;;;;;;5.10;3.33;;;14.80;65.40;;;;;;2054931;28;20442;-74
2022/03/16 04:53:04;;;;;;;4.67;3.10;;;14.70;65.30;;;;;;2062575;27;20192;-74
2022/03/16 04:54:03;;;;;;;4.53;2.80;;;14.80;65.40;;;;;;2063820;27;20175;-74
2022/03/16 04:55:01;;;;;;;4.23;2.90;;;14.70;65.30;;;;;;2063821;27;20186;-74
2022/03/16 04:56:01;;;;;;;5.77;3.13;;;14.70;65.50;;;;;;2063323;27;20188;-75
2022/03/16 04:57:00;;;;;;;6.25;3.30;;;14.70;65.40;;;;;;2063347;27;20199;-76
2022/03/16 04:58:00;;;;;;;3.43;2.67;;;14.80;65.70;;;;;;2063559;27;20173;-74
2022/03/16 04:58:58;;;;;;;5.18;3.63;;;14.70;65.60;;;;;;2063335;27;20149;-74
2022/03/16 04:59:57;;;;;;;4.43;3.07;;;14.70;65.70;;;;;;2063017;27;20172;-75
2022/03/16 05:00:56;;;;;;;5.37;3.33;;;14.70;65.40;;;;;;2063147;27;20181;-75
2022/03/16 05:01:55;;;;;;;5.07;3.10;;;14.70;65.60;;;;;;2054628;28;20197;-75
2022/03/16 05:02:53;;;;;;;4.25;2.95;;;14.70;65.60;;;;;;2054828;28;20221;-74
2022/03/16 05:03:52;;;;;;;4.00;2.83;;;14.70;65.40;;;;;;2062228;27;20240;-75
2022/03/16 05:04:50;;;;;;;4.27;3.00;;;14.80;65.60;;;;;;2062942;27;20165;-75
2022/03/16 05:05:49;;;;;;;3.83;2.93;;;14.70;65.20;;;;;;2062176;27;20173;-75
2022/03/16 05:06:47;;;;;;;5.70;3.33;;;14.70;65.20;;;;;;2061326;27;20212;-75
2022/03/16 05:07:46;;;;;;;5.13;3.20;;;14.70;65.30;;;;;;2061424;27;20161;-74